sensor_id;sensor_type;location;lat;lon;timestamp;pressure;altitude;pressure_sealevel;temperature;humidity
26839;BME280;40088;51.214;6.786;2023-04-09T00:03:37;102229.53;;;16.21;56.50
26839;BME280;40088;51.214;6.786;2023-04-09T00:13:37;102227.66;;;16.21;56.62
26839;BME280;40088;51.214;6.786;2023-04-09T00:23:38;102225.75;;;16.22;56.53
26839;BME280;40088;51.214;6.786;2023-04-09T00:33:38;102218.53;;;16.21;56.52
26839;BME280;40088;51.214;6.786;2023-04-09T00:43:39;102217.66;;;16.20;56.45
26839;BME280;40088;51.214;6.786;2023-04-09T00:53:39;102219.56;;;16.20;56.55
26839;BME280;40088;51.214;6.786;2023-04-09T01:03:39;102210.44;;;16.19;56.60
26839;BME280;40088;51.214;6.786;2023-04-09T01:13:48;102212.34;;;16.19;56.74
26839;BME280;40088;51.214;6.786;2023-04-09T01:34:08;102215.09;;;16.19;56.67
26839;BME280;40088;51.214;6.786;2023-04-09T01:44:11;102222.47;;;16.18;56.67
26839;BME280;40088;51.214;6.786;2023-04-09T01:54:12;102216.97;;;16.18;56.55
26839;BME280;40088;51.214;6.786;2023-04-09T02:04:21;102209.72;;;16.17;56.60
26839;BME280;40088;51.214;6.786;2023-04-09T02:14:24;102206.09;;;16.17;56.46
26839;BME280;40088;51.214;6.786;2023-04-09T02:24:25;102201.63;;;16.15;56.57
26839;BME280;40088;51.214;6.786;2023-04-09T02:34:26;102197.00;;;16.16;56.65
26839;BME280;40088;51.214;6.786;2023-04-09T02:44:26;102179.63;;;16.15;56.55
26839;BME280;40088;51.214;6.786;2023-04-09T02:54:27;102175.00;;;16.16;56.69
26839;BME280;40088;51.214;6.786;2023-04-09T03:04:27;102172.25;;;16.16;56.61
26839;BME280;40088;51.214;6.786;2023-04-09T03:14:27;102171.22;;;16.17;56.53
26839;BME280;40088;51.214;6.786;2023-04-09T03:24:28;102165.88;;;16.15;57.01
26839;BME280;40088;51.214;6.786;2023-04-09T03:34:28;102155.75;;;16.16;56.66
26839;BME280;40088;51.214;6.786;2023-04-09T03:44:28;102152.84;;;16.18;56.67
26839;BME280;40088;51.214;6.786;2023-04-09T03:54:29;102147.31;;;16.18;56.66
26839;BME280;40088;51.214;6.786;2023-04-09T04:04:29;102151.09;;;16.17;56.65
26839;BME280;40088;51.214;6.786;2023-04-09T04:14:29;102154.72;;;16.17;56.60
26839;BME280;40088;51.214;6.786;2023-04-09T04:24:29;102153.00;;;16.16;56.53
26839;BME280;40088;51.214;6.786;2023-04-09T04:34:30;102154.72;;;16.17;56.44
26839;BME280;40088;51.214;6.786;2023-04-09T04:44:30;102166.56;;;16.18;56.34
26839;BME280;40088;51.214;6.786;2023-04-09T04:54:30;102158.31;;;16.18;56.39
26839;BME280;40088;51.214;6.786;2023-04-09T05:04:31;102168.47;;;16.17;56.49
26839;BME280;40088;51.214;6.786;2023-04-09T05:14:31;102173.09;;;16.17;56.51
26839;BME280;40088;51.214;6.786;2023-04-09T05:24:31;102162.97;;;16.17;56.40
26839;BME280;40088;51.214;6.786;2023-04-09T05:34:31;102181.34;;;16.17;56.20
26839;BME280;40088;51.214;6.786;2023-04-09T05:44:32;102166.75;;;16.16;56.25
26839;BME280;40088;51.214;6.786;2023-04-09T05:54:32;102170.34;;;16.17;56.24
26839;BME280;40088;51.214;6.786;2023-04-09T06:04:32;102175.00;;;16.16;56.26
26839;BME280;40088;51.214;6.786;2023-04-09T06:14:32;102172.25;;;16.16;56.10
26839;BME280;40088;51.214;6.786;2023-04-09T06:24:33;102175.72;;;16.18;56.32
26839;BME280;40088;51.214;6.786;2023-04-09T06:34:33;102174.84;;;16.18;56.18
26839;BME280;40088;51.214;6.786;2023-04-09T06:44:33;102180.31;;;16.18;56.13
26839;BME280;40088;51.214;6.786;2023-04-09T06:54:34;102192.22;;;16.18;56.12
26839;BME280;40088;51.214;6.786;2023-04-09T07:04:34;102197.72;;;16.18;56.07
26839;BME280;40088;51.214;6.786;2023-04-09T07:14:35;102197.72;;;16.18;56.21
26839;BME280;40088;51.214;6.786;2023-04-09T07:24:35;102198.59;;;16.19;56.04
26839;BME280;40088;51.214;6.786;2023-04-09T07:34:36;102203.22;;;16.18;56.07
26839;BME280;40088;51.214;6.786;2023-04-09T07:44:36;102207.69;;;16.19;56.22
26839;BME280;40088;51.214;6.786;2023-04-09T07:54:37;102204.94;;;16.19;55.94
26839;BME280;40088;51.214;6.786;2023-04-09T08:04:38;102211.31;;;16.20;56.02
26839;BME280;40088;51.214;6.786;2023-04-09T08:14:38;102211.31;;;16.20;56.26
26839;BME280;40088;51.214;6.786;2023-04-09T08:24:38;102206.50;;;16.22;56.28
26839;BME280;40088;51.214;6.786;2023-04-09T08:34:39;102208.41;;;16.21;55.89
26839;BME280;40088;51.214;6.786;2023-04-09T08:44:40;102209.25;;;16.22;56.33
26839;BME280;40088;51.214;6.786;2023-04-09T08:54:40;102227.47;;;16.23;56.11
26839;BME280;40088;51.214;6.786;2023-04-09T09:04:47;102215.63;;;16.22;56.09
26839;BME280;40088;51.214;6.786;2023-04-09T09:14:48;102212.00;;;16.22;56.46
26839;BME280;40088;51.214;6.786;2023-04-09T09:24:50;102199.97;;;16.23;56.42
26839;BME280;40088;51.214;6.786;2023-04-09T09:35:17;102188.97;;;16.23;56.19
26839;BME280;40088;51.214;6.786;2023-04-09T09:45:17;102184.38;;;16.23;56.16
26839;BME280;40088;51.214;6.786;2023-04-09T09:55:19;102174.22;;;16.24;56.39
26839;BME280;40088;51.214;6.786;2023-04-09T10:05:22;102168.72;;;16.24;56.39
26839;BME280;40088;51.214;6.786;2023-04-09T10:15:28;102144.84;;;16.24;56.27
26839;BME280;40088;51.214;6.786;2023-04-09T10:25:30;102159.44;;;16.25;56.57
26839;BME280;40088;51.214;6.786;2023-04-09T10:35:30;102149.31;;;16.25;56.42
26839;BME280;40088;51.214;6.786;2023-04-09T10:45:40;102132.63;;;16.27;56.23
26839;BME280;40088;51.214;6.786;2023-04-09T10:55:47;102129.88;;;16.27;56.35
26839;BME280;40088;51.214;6.786;2023-04-09T11:06:05;102118.88;;;16.27;56.27
26839;BME280;40088;51.214;6.786;2023-04-09T11:16:10;102111.66;;;16.26;56.53
26839;BME280;40088;51.214;6.786;2023-04-09T11:26:10;102108.91;;;16.26;56.48
26839;BME280;40088;51.214;6.786;2023-04-09T11:36:11;102086.75;;;16.27;56.46
26839;BME280;40088;51.214;6.786;2023-04-09T11:46:11;102087.59;;;16.28;56.39
26839;BME280;40088;51.214;6.786;2023-04-09T11:56:11;102079.34;;;16.28;56.40
26839;BME280;40088;51.214;6.786;2023-04-09T12:06:12;102078.34;;;16.29;56.64
26839;BME280;40088;51.214;6.786;2023-04-09T12:16:13;102077.50;;;16.28;56.39
26839;BME280;40088;51.214;6.786;2023-04-09T12:26:13;102078.50;;;16.27;56.63
26839;BME280;40088;51.214;6.786;2023-04-09T12:36:13;102078.34;;;16.29;56.43
26839;BME280;40088;51.214;6.786;2023-04-09T12:46:13;102078.34;;;16.29;56.65
26839;BME280;40088;51.214;6.786;2023-04-09T12:56:14;102070.97;;;16.29;56.57
26839;BME280;40088;51.214;6.786;2023-04-09T13:06:15;102077.31;;;16.30;56.71
26839;BME280;40088;51.214;6.786;2023-04-09T13:16:15;102056.19;;;16.30;56.71
26839;BME280;40088;51.214;6.786;2023-04-09T13:26:15;102056.00;;;16.32;56.55
26839;BME280;40088;51.214;6.786;2023-04-09T13:36:16;102050.69;;;16.30;56.49
26839;BME280;40088;51.214;6.786;2023-04-09T13:46:16;102045.19;;;16.30;56.48
26839;BME280;40088;51.214;6.786;2023-04-09T13:56:16;102039.50;;;16.32;56.50
26839;BME280;40088;51.214;6.786;2023-04-09T14:06:17;102028.66;;;16.30;56.73
26839;BME280;40088;51.214;6.786;2023-04-09T14:16:18;102024.88;;;16.31;56.71
26839;BME280;40088;51.214;6.786;2023-04-09T14:26:18;102006.66;;;16.30;56.85
26839;BME280;40088;51.214;6.786;2023-04-09T14:36:18;102007.53;;;16.31;56.55
26839;BME280;40088;51.214;6.786;2023-04-09T14:46:19;101996.53;;;16.31;56.88
26839;BME280;40088;51.214;6.786;2023-04-09T14:56:19;101996.53;;;16.31;56.73
26839;BME280;40088;51.214;6.786;2023-04-09T15:06:20;101987.41;;;16.30;56.72
26839;BME280;40088;51.214;6.786;2023-04-09T15:16:24;101981.06;;;16.30;56.98
26839;BME280;40088;51.214;6.786;2023-04-09T15:26:26;101988.28;;;16.31;56.83
26839;BME280;40088;51.214;6.786;2023-04-09T15:36:27;101986.56;;;16.30;56.72
26839;BME280;40088;51.214;6.786;2023-04-09T15:46:29;101978.31;;;16.30;56.88
26839;BME280;40088;51.214;6.786;2023-04-09T15:56:29;101974.69;;;16.29;56.82
26839;BME280;40088;51.214;6.786;2023-04-09T16:06:29;101981.06;;;16.30;56.85
26839;BME280;40088;51.214;6.786;2023-04-09T16:16:30;101968.34;;;16.29;56.98
26839;BME280;40088;51.214;6.786;2023-04-09T16:26:31;101957.34;;;16.29;57.02
26839;BME280;40088;51.214;6.786;2023-04-09T16:36:31;101951.81;;;16.29;56.95
26839;BME280;40088;51.214;6.786;2023-04-09T16:46:32;101930.81;;;16.28;56.94
26839;BME280;40088;51.214;6.786;2023-04-09T16:56:32;101924.47;;;16.27;57.02
26839;BME280;40088;51.214;6.786;2023-04-09T17:06:33;101929.97;;;16.27;57.02
26839;BME280;40088;51.214;6.786;2023-04-09T17:16:33;101931.00;;;16.26;57.07
26839;BME280;40088;51.214;6.786;2023-04-09T17:26:33;101935.47;;;16.27;57.15
26839;BME280;40088;51.214;6.786;2023-04-09T17:36:34;101936.50;;;16.26;57.15
26839;BME280;40088;51.214;6.786;2023-04-09T17:46:34;101937.34;;;16.27;57.28
26839;BME280;40088;51.214;6.786;2023-04-09T17:56:35;101942.84;;;16.27;57.22
26839;BME280;40088;51.214;6.786;2023-04-09T18:06:38;101953.00;;;16.26;57.29
26839;BME280;40088;51.214;6.786;2023-04-09T18:16:38;101941.13;;;16.26;57.37
26839;BME280;40088;51.214;6.786;2023-04-09T18:26:39;101954.03;;;16.25;57.39
26839;BME280;40088;51.214;6.786;2023-04-09T18:36:39;101957.63;;;16.26;57.28
26839;BME280;40088;51.214;6.786;2023-04-09T18:46:41;101950.25;;;16.26;57.32
26839;BME280;40088;51.214;6.786;2023-04-09T18:56:42;101951.28;;;16.25;57.26
26839;BME280;40088;51.214;6.786;2023-04-09T19:06:42;101960.38;;;16.26;57.32
26839;BME280;40088;51.214;6.786;2023-04-09T19:16:45;101963.13;;;16.26;57.33
26839;BME280;40088;51.214;6.786;2023-04-09T19:26:45;101968.66;;;16.26;57.23
26839;BME280;40088;51.214;6.786;2023-04-09T19:36:46;101975.00;;;16.26;57.11
26839;BME280;40088;51.214;6.786;2023-04-09T19:46:46;101965.03;;;16.25;57.16
26839;BME280;40088;51.214;6.786;2023-04-09T19:56:46;101980.50;;;16.26;57.13
26839;BME280;40088;51.214;6.786;2023-04-09T20:06:46;101968.66;;;16.26;57.24
26839;BME280;40088;51.214;6.786;2023-04-09T20:16:50;101968.66;;;16.26;56.99
26839;BME280;40088;51.214;6.786;2023-04-09T20:26:50;101968.47;;;16.27;57.19
26839;BME280;40088;51.214;6.786;2023-04-09T20:36:54;101960.38;;;16.26;57.03
26839;BME280;40088;51.214;6.786;2023-04-09T20:46:54;101955.75;;;16.26;57.00
26839;BME280;40088;51.214;6.786;2023-04-09T20:56:55;101945.59;;;16.27;56.98
26839;BME280;40088;51.214;6.786;2023-04-09T21:06:55;101935.63;;;16.26;56.99
26839;BME280;40088;51.214;6.786;2023-04-09T21:16:55;101938.38;;;16.26;56.85
26839;BME280;40088;51.214;6.786;2023-04-09T21:26:56;101945.59;;;16.27;57.03
26839;BME280;40088;51.214;6.786;2023-04-09T21:36:57;101943.03;;;16.25;56.92
26839;BME280;40088;51.214;6.786;2023-04-09T21:46:58;101941.13;;;16.26;57.07
26839;BME280;40088;51.214;6.786;2023-04-09T21:56:58;101918.28;;;16.25;57.01
26839;BME280;40088;51.214;6.786;2023-04-09T22:06:58;101928.41;;;16.25;56.72
26839;BME280;40088;51.214;6.786;2023-04-09T22:16:59;101940.44;;;16.24;56.76
26839;BME280;40088;51.214;6.786;2023-04-09T22:27:00;101966.06;;;16.24;56.77
26839;BME280;40088;51.214;6.786;2023-04-09T22:37:01;101957.94;;;16.23;56.90
26839;BME280;40088;51.214;6.786;2023-04-09T22:47:01;101969.84;;;16.23;56.60
26839;BME280;40088;51.214;6.786;2023-04-09T22:57:01;101971.69;;;16.23;56.54
26839;BME280;40088;51.214;6.786;2023-04-09T23:07:02;101966.38;;;16.21;56.76
26839;BME280;40088;51.214;6.786;2023-04-09T23:17:02;101968.94;;;16.23;56.74
26839;BME280;40088;51.214;6.786;2023-04-09T23:27:03;101956.22;;;16.22;56.47
26839;BME280;40088;51.214;6.786;2023-04-09T23:37:03;101958.97;;;16.22;56.62
26839;BME280;40088;51.214;6.786;2023-04-09T23:47:03;101957.25;;;16.21;56.50
26839;BME280;40088;51.214;6.786;2023-04-09T23:57:04;101947.13;;;16.21;56.40
